createdAt,value
2023-05-02T00:02:50.320Z,100952.00
2023-05-02T00:12:51.078Z,100948.00
2023-05-02T00:22:51.157Z,100952.00
2023-05-02T00:32:53.236Z,100962.00
2023-05-02T00:42:53.146Z,100973.00
2023-05-02T00:52:53.217Z,100983.00
2023-05-02T01:02:53.546Z,100991.00
2023-05-02T01:12:54.237Z,100999.00
2023-05-02T01:22:54.201Z,101003.00
2023-05-02T01:32:54.334Z,101014.00
2023-05-02T01:42:54.251Z,101022.00
2023-05-02T01:52:54.590Z,101026.00
2023-05-02T02:02:54.429Z,101040.00
2023-05-02T02:12:54.239Z,101064.00
2023-05-02T02:22:54.235Z,101070.00
2023-05-02T02:32:54.392Z,101078.00
2023-05-02T02:42:54.380Z,101082.00
2023-05-02T02:53:00.494Z,101094.00
2023-05-02T03:03:00.484Z,101099.00
2023-05-02T03:13:00.692Z,101105.00
2023-05-02T03:23:00.608Z,101115.00
2023-05-02T03:33:01.348Z,101123.00
2023-05-02T03:43:02.533Z,101131.00
2023-05-02T03:53:04.344Z,101137.00
2023-05-02T04:03:05.880Z,101139.00
2023-05-02T04:13:07.692Z,101144.00
2023-05-02T04:23:08.302Z,101150.00
2023-05-02T04:33:10.399Z,101158.00
2023-05-02T04:43:12.401Z,101166.00
2023-05-02T04:53:12.631Z,101186.00
2023-05-02T05:03:12.818Z,101201.00
2023-05-02T05:13:15.696Z,101219.00
2023-05-02T05:23:15.722Z,101231.00
2023-05-02T05:33:16.757Z,101237.00
2023-05-02T05:43:16.588Z,101248.00
2023-05-02T05:53:17.838Z,101260.00
2023-05-02T06:03:18.604Z,101268.00
2023-05-02T06:13:18.809Z,101280.00
2023-05-02T06:23:18.592Z,101289.00
2023-05-02T06:33:18.714Z,101307.00
2023-05-02T06:43:18.622Z,101333.00
2023-05-02T06:53:18.608Z,101347.00
2023-05-02T07:03:18.669Z,101365.00
2023-05-02T07:13:18.613Z,101377.00
2023-05-02T07:23:18.683Z,101390.00
2023-05-02T07:33:18.779Z,101406.00
2023-05-02T07:43:18.678Z,101414.00
2023-05-02T07:53:18.849Z,101424.00
2023-05-02T08:03:18.828Z,101431.00
2023-05-02T08:13:18.710Z,101437.00
2023-05-02T08:23:18.780Z,101447.00
2023-05-02T08:33:18.831Z,101465.00
2023-05-02T08:43:18.761Z,101480.00
2023-05-02T08:53:18.864Z,101498.00
2023-05-02T09:03:20.283Z,101506.00
2023-05-02T09:13:20.825Z,101519.00
2023-05-02T09:23:20.870Z,101529.00
2023-05-02T09:33:21.157Z,101539.00
2023-05-02T09:43:21.291Z,101551.00
2023-05-02T09:53:21.889Z,101577.00
2023-05-02T10:03:22.006Z,101587.00
2023-05-02T10:13:22.395Z,101595.00
2023-05-02T10:23:22.969Z,101599.00
2023-05-02T10:33:22.961Z,101599.00
2023-05-02T10:43:26.122Z,101587.00
2023-05-02T10:53:25.942Z,101589.00
2023-05-02T11:03:26.082Z,101589.00
2023-05-02T11:13:26.014Z,101591.00
2023-05-02T11:23:26.342Z,101595.00
2023-05-02T11:33:27.044Z,101597.00
2023-05-02T11:43:29.259Z,101599.00
2023-05-02T11:53:29.399Z,101603.00
2023-05-02T12:03:30.345Z,101612.00
2023-05-02T12:13:31.188Z,101618.00
2023-05-02T12:23:31.093Z,101624.00
2023-05-02T12:33:31.391Z,101632.00
2023-05-02T12:43:31.198Z,101642.00
2023-05-02T12:53:31.217Z,101652.00
2023-05-02T13:03:31.233Z,101659.00
2023-05-02T13:13:32.121Z,101663.00
2023-05-02T13:23:32.250Z,101663.00
2023-05-02T13:33:32.194Z,101669.00
2023-05-02T13:43:32.337Z,101671.00
2023-05-02T13:53:32.237Z,101673.00
2023-05-02T14:03:32.263Z,101669.00
2023-05-02T14:13:32.349Z,101667.00
2023-05-02T14:23:32.270Z,101667.00
2023-05-02T14:33:32.250Z,101667.00
2023-05-02T14:43:32.287Z,101669.00
2023-05-02T14:53:32.401Z,101665.00
2023-05-02T15:03:32.381Z,101665.00
2023-05-02T15:13:32.391Z,101663.00
2023-05-02T15:23:32.390Z,101661.00
2023-05-02T15:33:32.409Z,101659.00
2023-05-02T15:43:32.473Z,101659.00
2023-05-02T15:53:32.381Z,101661.00
2023-05-02T16:03:33.700Z,101669.00
2023-05-02T16:13:34.540Z,101669.00
2023-05-02T16:23:34.381Z,101673.00
2023-05-02T16:33:34.405Z,101677.00
2023-05-02T16:43:34.881Z,101679.00
2023-05-02T16:53:35.727Z,101683.00
2023-05-02T17:03:35.606Z,101685.00
2023-05-02T17:13:36.378Z,101687.00
2023-05-02T17:23:36.524Z,101693.00
2023-05-02T17:33:36.552Z,101697.00
2023-05-02T17:43:37.605Z,101705.00
2023-05-02T17:53:37.612Z,101701.00
2023-05-02T18:03:37.797Z,101706.00
2023-05-02T18:13:39.280Z,101706.00
2023-05-02T18:23:40.194Z,101710.00
2023-05-02T18:33:41.580Z,101718.00
2023-05-02T18:43:41.663Z,101728.00
2023-05-02T18:53:41.580Z,101734.00
2023-05-02T19:03:42.547Z,101744.00
2023-05-02T19:13:42.688Z,101748.00
2023-05-02T19:23:42.922Z,101757.00
2023-05-02T19:33:45.589Z,101773.00
2023-05-02T19:43:45.755Z,101785.00
2023-05-02T19:53:45.805Z,101791.00
2023-05-02T20:03:45.941Z,101802.00
2023-05-02T20:13:46.866Z,101808.00
2023-05-02T20:23:46.707Z,101814.00
2023-05-02T20:33:47.601Z,101816.00
2023-05-02T20:43:47.855Z,101833.00
2023-05-02T20:53:48.520Z,101839.00
2023-05-02T21:03:49.003Z,101845.00
2023-05-02T21:13:48.928Z,101852.00
2023-05-02T21:23:50.880Z,101858.00
2023-05-02T21:33:50.799Z,101860.00
2023-05-02T21:43:51.176Z,101864.00
2023-05-02T21:53:51.851Z,101872.00
2023-05-02T22:03:51.812Z,101872.00
2023-05-02T22:13:51.950Z,101876.00
2023-05-02T22:23:51.881Z,101884.00
2023-05-02T22:33:51.936Z,101888.00
2023-05-02T22:43:54.040Z,101889.00
2023-05-02T22:53:54.979Z,101889.00
2023-05-02T23:03:55.143Z,101893.00
2023-05-02T23:13:55.016Z,101888.00
2023-05-02T23:23:54.966Z,101886.00
2023-05-02T23:33:54.913Z,101886.00
2023-05-02T23:43:55.338Z,101878.00
2023-05-02T23:53:55.948Z,101880.00
